OIMC  Sarakhs Airport

Add Bookmark

Sarakhs, Iran

Status IATA
Operational CKT
Latitude Longitude
36° 30' 4" N 61° 3' 53" E
36.501202 61.064899
Local (DST + 5) UTC (GMT + 4)
Feb 1, 2015 03:07 Feb 1, 2015 11:37
Sunrise-Sunset Local UTC
Begin Civil Twilight 05:58 02:28
Sunrise 06:25 02:55
Sunset 04:52 13:22
End Civil Twilight 05:19 13:49

Current Weather

METAR Observed VFR
OIMC 011100Z 08004KT 9999 SCT035 08/04 Q1022 Sun, Feb 1, 2015 @ 11:00 UTC
(37 Minutes ago)
Visual Flight Rules
Wind Visibility Clouds Conditions
080° at 4 knots (7 kph) 10 km or more
  • Scattered at 3,500' AGL
  • No significant weather
Temperatures Readings Precipitation
Current Temp 8°C (46°F)
Dewpoint 4°C (39°F)
Humidity 76%
Altimeter 30.18"Hg
Sea Level Pressure 1022mb
Field Elevation 944.88'
None Recorded

Additional weather within a 185.2km radius of OIMC

Map ICAO Location
OIMM 130.8km W (257°)
UTAM 144.5km N (030°)

24 Hour Weather History

Loading
-

24 Hour Weather Graphs

Loading
-

CheckWX.com is intended as a tool to help pilots better visualize weather data. It is not intended as a substitute for an official weather briefing obtained from a Flight Service Station. CheckWX.com does not meet the FAA requirements for an official pre-flight weather briefing. Therefore, it's important that pilots still call and obtain an official FSS pre-flight weather briefing.